Time;durP1;ratioP1;P1;durP2;ratioP2;P2;SDS_P1;SDS_P2;PMS_P1;PMS_P2;Temp;Humidity;BMP_temperature;BMP_pressure;BME280_temperature;BME280_humidity;BME280_pressure;Samples;Min_cycle;Max_cycle;Signal;HPM_P1;HPM_P2
2022/01/24 00:02:22;;;;;;;10.23;2.30;;;;;;;;;;5014418;28;20052;-65
2022/01/24 00:04:53;;;;;;;4.18;1.92;;;;;;;;;;5047220;28;20072;-67
2022/01/24 00:07:25;;;;;;;6.43;1.95;;;;;;;;;;5034335;28;20202;-65
2022/01/24 00:09:59;;;;;;;5.13;1.90;;;;;;;;;;5001844;28;20049;-65
2022/01/24 00:15:14;;;;;;;4.50;1.95;;;;;;;;;;5050794;28;20057;-65
2022/01/24 00:17:51;;;;;;;3.90;1.95;;;;;;;;;;5032604;28;20088;-65
2022/01/24 00:28:54;;;;;;;8.18;2.13;;;;;;;;;;4954485;28;20563;-65
2022/01/24 00:31:25;;;;;;;5.57;2.10;;;;;;;;;;4970609;28;20059;-65
2022/01/24 00:33:55;;;;;;;8.40;2.45;;;;;;;;;;4968241;28;20055;-64
2022/01/24 00:36:25;;;;;;;4.95;2.15;;;;;;;;;;4952522;29;20058;-64
2022/01/24 00:38:57;;;;;;;4.38;2.42;;;;;;;;;;4952205;29;20055;-63
2022/01/24 00:41:27;;;;;;;4.78;2.10;;;;;;;;;;4936128;29;20499;-64
2022/01/24 00:46:41;;;;;;;5.05;1.95;;;;;;;;;;4952186;29;20051;-64
2022/01/24 00:54:52;;;;;;;4.18;1.70;;;;;;;;;;4951805;29;20082;-64
2022/01/24 00:57:24;;;;;;;3.83;1.80;;;;;;;;;;4952248;29;20055;-64
2022/01/24 00:59:54;;;;;;;3.17;1.58;;;;;;;;;;4951892;29;20531;-64
2022/01/24 01:02:25;;;;;;;4.05;1.55;;;;;;;;;;4955460;28;20447;-66
2022/01/24 01:05:09;;;;;;;5.75;1.60;;;;;;;;;;5031265;28;20492;-65
2022/01/24 01:07:57;;;;;;;3.65;1.80;;;;;;;;;;5068593;28;20044;-65
2022/01/24 01:18:54;;;;;;;4.15;1.63;;;;;;;;;;5056051;28;20052;-65
2022/01/24 01:21:26;;;;;;;2.22;1.35;;;;;;;;;;5035985;28;20059;-64
2022/01/24 01:23:58;;;;;;;6.22;1.58;;;;;;;;;;5036262;28;20051;-65
2022/01/24 01:26:41;;;;;;;4.72;1.42;;;;;;;;;;5036017;28;20063;-65
2022/01/24 01:29:20;;;;;;;4.60;1.30;;;;;;;;;;5062746;28;20044;-65
2022/01/24 01:32:09;;;;;;;4.85;1.58;;;;;;;;;;5090070;28;20056;-65
2022/01/24 01:54:10;;;;;;;4.25;1.35;;;;;;;;;;5068135;28;20045;-64
2022/01/24 01:56:42;;;;;;;4.07;2.00;;;;;;;;;;5018732;28;20085;-64
2022/01/24 01:59:13;;;;;;;3.22;1.60;;;;;;;;;;5068968;28;20064;-64
2022/01/24 02:01:43;;;;;;;5.28;1.77;;;;;;;;;;5035453;28;20052;-65
2022/01/24 02:04:15;;;;;;;5.00;1.70;;;;;;;;;;5068414;28;20044;-64
2022/01/24 02:06:46;;;;;;;4.35;1.63;;;;;;;;;;5028383;28;20060;-64
2022/01/24 02:09:16;;;;;;;3.17;1.58;;;;;;;;;;4996153;28;20057;-64
2022/01/24 02:11:48;;;;;;;5.60;1.40;;;;;;;;;;5028794;28;20057;-65
2022/01/24 02:14:21;;;;;;;2.78;1.70;;;;;;;;;;5028798;28;20053;-65
2022/01/24 02:16:58;;;;;;;5.18;1.65;;;;;;;;;;4950073;28;20054;-65
2022/01/24 02:19:51;;;;;;;4.32;1.70;;;;;;;;;;4950276;28;20059;-64
2022/01/24 02:24:59;;;;;;;4.72;1.67;;;;;;;;;;4950348;28;20066;-66
2022/01/24 02:27:41;;;;;;;3.33;1.67;;;;;;;;;;4949969;28;20055;-65
2022/01/24 02:30:36;;;;;;;5.25;1.90;;;;;;;;;;4950130;28;20103;-64
2022/01/24 02:33:04;;;;;;;2.92;1.58;;;;;;;;;;4969879;28;20061;-64
2022/01/24 02:35:35;;;;;;;3.58;1.92;;;;;;;;;;4969597;28;20069;-65
2022/01/24 02:38:51;;;;;;;;;;;;;;;;;;;;;
2022/01/24 02:49:22;;;;;;;3.20;1.50;;;;;;;;;;4950052;29;20062;-65
2022/01/24 02:51:53;;;;;;;4.10;1.45;;;;;;;;;;4950558;29;20526;-65
2022/01/24 02:54:30;;;;;;;2.67;2.05;;;;;;;;;;4963283;28;20529;-65
2022/01/24 02:57:05;;;;;;;2.42;1.23;;;;;;;;;;4980002;28;20057;-65
2022/01/24 02:59:37;;;;;;;4.32;1.58;;;;;;;;;;5027999;28;20077;-66
2022/01/24 03:02:07;;;;;;;6.50;1.65;;;;;;;;;;4997933;28;20053;-66
2022/01/24 03:04:41;;;;;;;2.95;1.45;;;;;;;;;;5038349;28;20049;-66
2022/01/24 03:07:11;;;;;;;2.70;1.48;;;;;;;;;;5008112;28;20061;-63
2022/01/24 03:09:43;;;;;;;2.58;1.20;;;;;;;;;;5031875;28;20045;-66
2022/01/24 03:12:14;;;;;;;2.63;1.30;;;;;;;;;;5047836;28;20061;-62
2022/01/24 03:14:44;;;;;;;3.30;1.10;;;;;;;;;;5048011;28;20064;-66
2022/01/24 03:17:15;;;;;;;3.15;1.25;;;;;;;;;;5048048;28;20045;-64
2022/01/24 03:19:45;;;;;;;2.10;1.20;;;;;;;;;;5017973;28;20056;-66
2022/01/24 03:22:16;;;;;;;4.45;1.50;;;;;;;;;;5067947;28;20435;-66
2022/01/24 03:24:46;;;;;;;5.00;1.30;;;;;;;;;;5034710;28;20053;-65
2022/01/24 03:27:16;;;;;;;3.47;1.33;;;;;;;;;;5059156;28;20056;-63
2022/01/24 03:29:47;;;;;;;3.35;1.27;;;;;;;;;;5068430;28;20492;-66
2022/01/24 03:32:17;;;;;;;2.72;1.52;;;;;;;;;;5055443;28;20063;-65
2022/01/24 03:34:48;;;;;;;1.92;1.17;;;;;;;;;;5071214;28;20060;-64
2022/01/24 03:37:19;;;;;;;2.95;1.30;;;;;;;;;;5071393;28;20068;-66
2022/01/24 03:39:49;;;;;;;3.05;1.60;;;;;;;;;;5038186;28;20052;-65
2022/01/24 03:42:19;;;;;;;4.03;1.27;;;;;;;;;;5051611;28;20064;-65
2022/01/24 03:44:56;;;;;;;4.47;1.20;;;;;;;;;;5051427;28;20052;-65
2022/01/24 03:47:42;;;;;;;2.25;1.38;;;;;;;;;;5019751;28;20049;-65
2022/01/24 03:50:17;;;;;;;2.28;1.15;;;;;;;;;;5037231;28;20583;-62
2022/01/24 03:52:47;;;;;;;2.33;1.20;;;;;;;;;;5050970;28;20045;-64
2022/01/24 03:55:17;;;;;;;2.75;1.40;;;;;;;;;;5051152;28;20045;-64
2022/01/24 03:57:47;;;;;;;2.65;1.30;;;;;;;;;;5064440;28;20068;-64
2022/01/24 04:00:18;;;;;;;3.15;1.65;;;;;;;;;;5071238;28;20423;-63
2022/01/24 04:02:49;;;;;;;2.22;1.30;;;;;;;;;;5070894;28;20040;-64
2022/01/24 04:05:19;;;;;;;3.83;1.38;;;;;;;;;;5071103;28;20079;-64
2022/01/24 04:07:49;;;;;;;3.25;1.27;;;;;;;;;;5050214;28;20049;-63
2022/01/24 04:10:21;;;;;;;2.63;1.10;;;;;;;;;;5050867;28;20067;-63
2022/01/24 04:12:52;;;;;;;3.08;1.40;;;;;;;;;;5018082;28;20053;-64
2022/01/24 04:15:43;;;;;;;3.08;1.30;;;;;;;;;;5034777;28;20508;-64
2022/01/24 04:24:08;;;;;;;2.67;1.45;;;;;;;;;;4991355;28;20077;-64
2022/01/24 04:26:39;;;;;;;3.92;1.45;;;;;;;;;;4988025;28;20046;-64
2022/01/24 04:29:10;;;;;;;2.78;1.38;;;;;;;;;;4991509;28;20066;-64
2022/01/24 04:31:40;;;;;;;4.10;1.27;;;;;;;;;;4959052;28;20062;-64
2022/01/24 04:34:10;;;;;;;2.72;1.40;;;;;;;;;;4958955;28;20632;-62
2022/01/24 04:36:41;;;;;;;6.30;1.58;;;;;;;;;;5006350;28;20054;-64
2022/01/24 04:39:11;;;;;;;3.97;1.30;;;;;;;;;;4991239;28;20054;-64
2022/01/24 04:41:46;;;;;;;2.40;1.33;;;;;;;;;;4990744;28;20069;-64
2022/01/24 04:54:52;;;;;;;3.85;1.52;;;;;;;;;;4979690;28;20058;-64
2022/01/24 04:57:25;;;;;;;3.15;1.50;;;;;;;;;;5036576;28;20057;-64
2022/01/24 04:59:57;;;;;;;7.20;1.85;;;;;;;;;;5090147;28;20040;-64
2022/01/24 05:02:28;;;;;;;3.00;1.92;;;;;;;;;;5090275;28;20052;-64
2022/01/24 05:04:59;;;;;;;4.55;1.98;;;;;;;;;;5069394;28;20055;-64
2022/01/24 05:07:30;;;;;;;3.13;1.38;;;;;;;;;;5016466;28;20162;-65
2022/01/24 05:10:16;;;;;;;6.00;1.35;;;;;;;;;;5033604;28;20045;-64
2022/01/24 05:23:49;;;;;;;4.32;2.13;;;;;;;;;;5016405;28;20045;-64
2022/01/24 05:26:19;;;;;;;4.55;1.58;;;;;;;;;;5049190;28;20057;-64
2022/01/24 05:28:50;;;;;;;3.53;1.63;;;;;;;;;;5033443;28;20056;-64
2022/01/24 05:31:21;;;;;;;3.42;1.38;;;;;;;;;;5049283;28;20049;-64
2022/01/24 05:33:51;;;;;;;4.15;1.30;;;;;;;;;;5049117;28;20045;-63
2022/01/24 05:36:22;;;;;;;3.03;1.30;;;;;;;;;;5049291;28;20457;-64
2022/01/24 05:38:52;;;;;;;3.00;1.50;;;;;;;;;;5000119;28;20559;-64
2022/01/24 05:41:23;;;;;;;5.65;1.58;;;;;;;;;;5032696;28;20503;-64
2022/01/24 05:43:53;;;;;;;2.45;1.38;;;;;;;;;;5068935;28;20055;-64
2022/01/24 05:46:24;;;;;;;5.55;1.50;;;;;;;;;;5053429;28;20055;-63
2022/01/24 05:48:55;;;;;;;4.40;1.48;;;;;;;;;;5071294;28;20052;-65
2022/01/24 05:51:26;;;;;;;2.55;1.50;;;;;;;;;;5068664;28;20052;-64
2022/01/24 05:53:57;;;;;;;3.53;1.42;;;;;;;;;;5068416;28;20052;-64
2022/01/24 05:56:28;;;;;;;2.15;1.30;;;;;;;;;;5068886;28;20052;-64
2022/01/24 05:58:58;;;;;;;3.88;1.40;;;;;;;;;;5032024;28;20040;-63
2022/01/24 06:01:28;;;;;;;4.00;1.23;;;;;;;;;;5048808;28;20075;-64
2022/01/24 06:03:58;;;;;;;5.55;1.40;;;;;;;;;;5031949;28;20056;-64
2022/01/24 06:06:29;;;;;;;10.38;1.50;;;;;;;;;;5008394;28;20050;-64
2022/01/24 06:09:00;;;;;;;2.22;1.30;;;;;;;;;;5045492;28;20531;-65
2022/01/24 06:11:30;;;;;;;5.65;2.13;;;;;;;;;;5028815;28;20425;-63
2022/01/24 06:14:02;;;;;;;2.92;1.58;;;;;;;;;;5028589;28;20057;-64
2022/01/24 06:16:33;;;;;;;4.45;1.42;;;;;;;;;;5060802;28;20058;-63
2022/01/24 06:19:04;;;;;;;3.83;1.52;;;;;;;;;;5028268;28;20053;-64
2022/01/24 06:21:35;;;;;;;2.90;1.42;;;;;;;;;;5012915;28;20057;-64
2022/01/24 06:24:05;;;;;;;4.85;1.33;;;;;;;;;;5028551;28;20058;-64
2022/01/24 06:26:36;;;;;;;2.22;1.45;;;;;;;;;;5027769;28;20060;-63
2022/01/24 06:29:07;;;;;;;4.57;2.25;;;;;;;;;;5037234;28;20421;-63
2022/01/24 06:31:37;;;;;;;2.80;1.30;;;;;;;;;;5028404;28;20072;-64
2022/01/24 06:34:08;;;;;;;5.97;1.52;;;;;;;;;;5028474;28;20060;-64
2022/01/24 06:36:38;;;;;;;2.42;1.40;;;;;;;;;;5011895;28;20065;-63
2022/01/24 06:39:11;;;;;;;10.48;1.50;;;;;;;;;;5028427;28;20053;-63
2022/01/24 06:41:43;;;;;;;5.85;1.50;;;;;;;;;;5028463;28;20048;-63
2022/01/24 06:44:14;;;;;;;5.13;1.75;;;;;;;;;;5050014;28;20428;-64
2022/01/24 06:46:44;;;;;;;4.07;1.40;;;;;;;;;;5050074;28;20060;-64
2022/01/24 06:49:15;;;;;;;3.63;1.30;;;;;;;;;;5089031;28;20439;-64
2022/01/24 06:51:45;;;;;;;2.83;1.83;;;;;;;;;;5088518;28;20055;-63
2022/01/24 06:54:15;;;;;;;1.90;1.40;;;;;;;;;;5090230;28;20036;-64
2022/01/24 06:56:46;;;;;;;3.25;1.63;;;;;;;;;;5067346;28;20052;-64
2022/01/24 06:59:16;;;;;;;3.75;1.60;;;;;;;;;;5033922;28;20052;-64
2022/01/24 07:01:46;;;;;;;6.28;1.40;;;;;;;;;;5068421;28;20064;-64
2022/01/24 07:04:17;;;;;;;3.03;1.73;;;;;;;;;;5037197;28;20048;-63
2022/01/24 07:06:47;;;;;;;3.22;1.60;;;;;;;;;;5037243;28;20057;-64
2022/01/24 07:09:18;;;;;;;4.43;1.90;;;;;;;;;;5032734;28;20394;-63
2022/01/24 07:11:50;;;;;;;2.80;1.30;;;;;;;;;;5000058;28;20064;-63
2022/01/24 07:14:20;;;;;;;5.63;1.63;;;;;;;;;;5033776;28;20058;-65
2022/01/24 07:19:29;;;;;;;4.38;1.38;;;;;;;;;;4998788;28;20057;-64
2022/01/24 07:22:02;;;;;;;5.25;1.63;;;;;;;;;;5031695;28;20058;-64
2022/01/24 07:24:33;;;;;;;3.28;1.65;;;;;;;;;;5031958;28;20045;-64
2022/01/24 07:27:05;;;;;;;4.53;1.50;;;;;;;;;;5011314;28;20057;-64
2022/01/24 07:29:35;;;;;;;3.25;1.40;;;;;;;;;;4982913;28;20533;-64
2022/01/24 07:32:06;;;;;;;4.03;1.73;;;;;;;;;;5011600;28;20054;-64
2022/01/24 07:34:36;;;;;;;5.18;1.65;;;;;;;;;;5023370;28;20053;-65
2022/01/24 07:37:07;;;;;;;4.72;1.50;;;;;;;;;;5010073;28;20054;-64
2022/01/24 07:39:37;;;;;;;3.67;1.60;;;;;;;;;;4975699;28;20046;-64
2022/01/24 07:42:16;;;;;;;4.13;1.58;;;;;;;;;;5015386;28;20057;-64
2022/01/24 07:44:46;;;;;;;6.57;1.33;;;;;;;;;;5031260;28;20049;-64
2022/01/24 07:47:17;;;;;;;3.28;1.98;;;;;;;;;;4966278;28;20052;-64
2022/01/24 07:49:47;;;;;;;6.82;1.80;;;;;;;;;;5031354;28;20064;-64
2022/01/24 07:52:17;;;;;;;3.72;1.80;;;;;;;;;;5031335;28;20464;-64
2022/01/24 07:54:48;;;;;;;4.15;1.65;;;;;;;;;;5014645;28;20505;-64
2022/01/24 07:57:18;;;;;;;4.22;1.85;;;;;;;;;;5011158;28;20165;-64
2022/01/24 07:59:48;;;;;;;5.20;2.25;;;;;;;;;;4971884;28;20042;-63
2022/01/24 08:02:18;;;;;;;4.63;1.80;;;;;;;;;;4972650;28;20487;-64
2022/01/24 08:04:48;;;;;;;4.45;2.05;;;;;;;;;;4914155;29;20540;-64
2022/01/24 08:07:19;;;;;;;6.43;1.80;;;;;;;;;;4952812;28;20051;-63
2022/01/24 08:09:49;;;;;;;4.20;1.90;;;;;;;;;;4963360;28;20062;-64
2022/01/24 08:12:19;;;;;;;4.13;1.77;;;;;;;;;;4972004;28;20553;-64
2022/01/24 08:14:49;;;;;;;4.93;2.00;;;;;;;;;;4971655;28;20565;-64
2022/01/24 08:17:22;;;;;;;3.13;1.80;;;;;;;;;;4971652;28;20059;-64
2022/01/24 08:19:53;;;;;;;7.63;1.90;;;;;;;;;;4971743;28;20054;-65
2022/01/24 08:22:23;;;;;;;6.32;2.00;;;;;;;;;;4971982;28;20420;-64
2022/01/24 08:24:54;;;;;;;6.07;2.10;;;;;;;;;;4981296;28;20062;-64
2022/01/24 08:27:25;;;;;;;6.75;1.85;;;;;;;;;;4990649;28;20073;-64
2022/01/24 08:29:55;;;;;;;8.75;1.98;;;;;;;;;;4991241;28;20050;-64
2022/01/24 08:32:25;;;;;;;6.65;2.50;;;;;;;;;;4991045;28;20486;-64
2022/01/24 08:34:56;;;;;;;8.48;1.75;;;;;;;;;;5010438;28;20065;-64
2022/01/24 08:37:33;;;;;;;3.67;1.75;;;;;;;;;;5051706;28;20052;-64
2022/01/24 08:40:06;;;;;;;9.07;1.63;;;;;;;;;;5053490;28;20041;-64
2022/01/24 08:42:52;;;;;;;3.92;1.90;;;;;;;;;;5054402;28;20051;-64
2022/01/24 08:48:15;;;;;;;3.42;2.10;;;;;;;;;;5070387;28;20087;-64
2022/01/24 08:50:46;;;;;;;6.82;2.25;;;;;;;;;;5003927;28;20527;-64
2022/01/24 08:53:17;;;;;;;4.30;2.08;;;;;;;;;;5070351;28;20064;-64
2022/01/24 08:55:47;;;;;;;5.57;1.88;;;;;;;;;;5053626;28;20064;-64
2022/01/24 08:58:18;;;;;;;9.70;2.58;;;;;;;;;;5054044;28;20056;-64
2022/01/24 09:00:49;;;;;;;3.20;2.33;;;;;;;;;;5070374;28;20394;-64
2022/01/24 09:03:19;;;;;;;4.72;2.13;;;;;;;;;;5072269;28;20037;-64
2022/01/24 09:05:52;;;;;;;7.88;1.98;;;;;;;;;;5072106;28;20049;-64
2022/01/24 09:08:23;;;;;;;5.30;1.80;;;;;;;;;;5072253;28;21117;-64
2022/01/24 09:10:54;;;;;;;7.55;2.00;;;;;;;;;;5072281;28;20052;-64
2022/01/24 09:13:24;;;;;;;6.90;2.28;;;;;;;;;;5072505;28;20396;-62
2022/01/24 09:15:54;;;;;;;5.28;2.00;;;;;;;;;;5053683;28;20500;-64
2022/01/24 09:18:25;;;;;;;6.78;2.15;;;;;;;;;;5071741;28;20053;-64
2022/01/24 09:20:56;;;;;;;4.40;1.85;;;;;;;;;;5071915;28;20049;-64
2022/01/24 09:23:27;;;;;;;7.20;2.33;;;;;;;;;;5087392;28;20051;-64
2022/01/24 09:25:57;;;;;;;9.82;2.20;;;;;;;;;;5055430;28;20662;-63
2022/01/24 09:28:27;;;;;;;7.07;2.33;;;;;;;;;;5055252;28;20063;-64
2022/01/24 09:30:58;;;;;;;5.57;2.20;;;;;;;;;;5089394;28;20055;-64
2022/01/24 09:33:29;;;;;;;4.82;2.30;;;;;;;;;;5089677;28;20043;-64
2022/01/24 09:36:01;;;;;;;6.18;2.55;;;;;;;;;;5069110;28;20052;-64
2022/01/24 09:38:33;;;;;;;6.50;2.47;;;;;;;;;;5019290;28;20158;-64
2022/01/24 09:41:13;;;;;;;6.28;2.33;;;;;;;;;;5048829;28;20405;-64
2022/01/24 09:43:44;;;;;;;5.78;2.42;;;;;;;;;;5016933;28;20067;-63
2022/01/24 09:46:14;;;;;;;6.15;2.70;;;;;;;;;;5049137;28;20060;-64
2022/01/24 09:48:45;;;;;;;8.18;3.30;;;;;;;;;;4983899;28;20080;-64
2022/01/24 09:51:16;;;;;;;4.90;3.20;;;;;;;;;;5048835;28;20469;-64
2022/01/24 09:53:47;;;;;;;6.28;2.65;;;;;;;;;;5048960;28;20060;-65
2022/01/24 09:56:18;;;;;;;7.20;2.30;;;;;;;;;;5049228;28;20060;-64
2022/01/24 09:58:49;;;;;;;5.80;2.30;;;;;;;;;;5048756;28;20056;-64
2022/01/24 10:01:20;;;;;;;5.35;2.30;;;;;;;;;;4999400;28;20060;-64
2022/01/24 10:04:16;;;;;;;5.45;2.30;;;;;;;;;;5036753;28;20060;-65
2022/01/24 10:07:07;;;;;;;9.60;2.70;;;;;;;;;;4970080;28;20063;-64
2022/01/24 10:09:50;;;;;;;6.53;2.50;;;;;;;;;;4953846;28;20054;-63
2022/01/24 10:17:55;;;;;;;6.55;2.70;;;;;;;;;;4991902;28;20054;-64
2022/01/24 10:20:28;;;;;;;6.38;2.40;;;;;;;;;;5008721;28;20050;-64
2022/01/24 10:23:13;;;;;;;6.93;2.88;;;;;;;;;;4988970;28;20061;-64
2022/01/24 10:25:52;;;;;;;6.15;2.63;;;;;;;;;;4973118;28;20066;-64
2022/01/24 10:28:28;;;;;;;6.82;2.15;;;;;;;;;;4969738;28;20758;-64
2022/01/24 10:31:07;;;;;;;8.10;2.70;;;;;;;;;;4969019;28;20065;-64
2022/01/24 10:34:05;;;;;;;7.13;2.67;;;;;;;;;;4969599;28;20447;-65
2022/01/24 10:36:45;;;;;;;5.85;2.40;;;;;;;;;;4921878;28;20050;-64
2022/01/24 10:45:11;;;;;;;6.75;2.63;;;;;;;;;;4982357;28;20064;-65
2022/01/24 10:47:45;;;;;;;5.32;2.30;;;;;;;;;;5012328;28;20058;-65
2022/01/24 10:50:29;;;;;;;4.47;2.35;;;;;;;;;;4948927;28;20075;-64
2022/01/24 10:53:13;;;;;;;5.00;2.20;;;;;;;;;;5012755;28;20053;-65
2022/01/24 10:55:50;;;;;;;4.38;2.55;;;;;;;;;;5028258;28;20041;-65
2022/01/24 10:58:20;;;;;;;8.50;2.42;;;;;;;;;;5028469;28;20433;-65
2022/01/24 11:00:53;;;;;;;5.28;2.25;;;;;;;;;;5024200;28;20053;-65
2022/01/24 11:03:24;;;;;;;11.05;4.43;;;;;;;;;;4998908;28;20049;-65
2022/01/24 11:05:55;;;;;;;6.80;2.60;;;;;;;;;;5058857;28;20064;-65
2022/01/24 11:08:27;;;;;;;16.83;6.90;;;;;;;;;;5067773;28;20055;-65
2022/01/24 11:10:58;;;;;;;5.18;2.58;;;;;;;;;;5068022;28;20053;-64
2022/01/24 11:13:31;;;;;;;4.50;2.50;;;;;;;;;;5034837;28;20048;-67
2022/01/24 11:16:02;;;;;;;6.80;2.70;;;;;;;;;;5051441;28;20500;-65
2022/01/24 11:18:34;;;;;;;8.18;2.65;;;;;;;;;;5068100;28;20040;-65
2022/01/24 11:21:12;;;;;;;6.55;2.50;;;;;;;;;;5067679;28;20052;-66
2022/01/24 11:23:45;;;;;;;4.13;2.22;;;;;;;;;;5068012;28;20040;-66
2022/01/24 11:26:17;;;;;;;9.90;2.40;;;;;;;;;;5051435;28;20056;-65
2022/01/24 11:28:48;;;;;;;5.38;2.58;;;;;;;;;;5067862;28;20559;-65
2022/01/24 11:31:28;;;;;;;8.13;3.35;;;;;;;;;;5051698;28;20721;-65
2022/01/24 11:34:08;;;;;;;7.22;2.72;;;;;;;;;;5050987;28;20056;-65
2022/01/24 11:36:42;;;;;;;6.28;2.58;;;;;;;;;;5052050;28;20060;-65
2022/01/24 11:39:20;;;;;;;5.20;2.50;;;;;;;;;;5067573;28;20053;-66
2022/01/24 11:41:51;;;;;;;10.45;2.70;;;;;;;;;;5067402;28;20049;-65
2022/01/24 11:44:22;;;;;;;7.47;2.40;;;;;;;;;;5017830;28;20071;-67
2022/01/24 11:46:59;;;;;;;6.32;2.20;;;;;;;;;;5084738;28;20149;-65
2022/01/24 11:49:38;;;;;;;7.00;2.53;;;;;;;;;;5038495;28;20063;-65
2022/01/24 11:52:13;;;;;;;4.18;1.90;;;;;;;;;;5091003;28;20126;-65
2022/01/24 11:57:40;;;;;;;8.13;2.70;;;;;;;;;;5070860;28;20067;-65
2022/01/24 12:00:10;;;;;;;8.73;2.70;;;;;;;;;;5070786;28;20496;-65
2022/01/24 12:02:49;;;;;;;4.13;2.22;;;;;;;;;;5017494;28;20480;-64
2022/01/24 12:05:24;;;;;;;5.35;2.20;;;;;;;;;;5051083;28;20405;-65
2022/01/24 12:08:04;;;;;;;4.95;2.40;;;;;;;;;;5050551;28;20524;-66
2022/01/24 12:10:58;;;;;;;;;;;;;;;;;;5051254;28;20057;-65
2022/01/24 12:13:36;;;;;;;6.72;2.20;;;;;;;;;;5050707;28;19925;-65
2022/01/24 12:16:09;;;;;;;3.67;2.22;;;;;;;;;;5035007;28;20056;-65
2022/01/24 12:18:40;;;;;;;4.55;2.20;;;;;;;;;;5027121;28;20058;-65
2022/01/24 12:21:15;;;;;;;6.43;2.45;;;;;;;;;;5010585;28;20050;-66
2022/01/24 12:24:16;;;;;;;4.95;2.63;;;;;;;;;;4978315;28;20042;-66
2022/01/24 12:27:05;;;;;;;6.93;2.50;;;;;;;;;;4971459;28;20058;-65
2022/01/24 12:29:41;;;;;;;5.28;2.05;;;;;;;;;;4971468;28;20155;-66
2022/01/24 12:32:23;;;;;;;3.90;2.10;;;;;;;;;;4971507;28;20054;-65
2022/01/24 12:34:54;;;;;;;6.32;2.38;;;;;;;;;;4940262;28;20067;-66
2022/01/24 12:37:29;;;;;;;6.07;2.25;;;;;;;;;;4971418;28;20053;-65
2022/01/24 12:40:07;;;;;;;4.95;2.50;;;;;;;;;;4935415;29;20408;-65
2022/01/24 12:42:51;;;;;;;6.07;2.35;;;;;;;;;;4952088;29;20085;-66
2022/01/24 12:48:32;;;;;;;4.95;2.20;;;;;;;;;;4932714;29;20108;-66
2022/01/24 12:51:07;;;;;;;4.03;1.85;;;;;;;;;;4951583;29;20090;-68
2022/01/24 12:53:39;;;;;;;7.95;2.30;;;;;;;;;;4934846;29;20055;-66
2022/01/24 12:56:15;;;;;;;4.65;2.30;;;;;;;;;;4921718;29;20054;-66
2022/01/24 12:58:48;;;;;;;4.63;2.25;;;;;;;;;;4932407;29;20735;-66
2022/01/24 13:01:30;;;;;;;6.30;2.38;;;;;;;;;;4932467;29;20523;-66
2022/01/24 13:04:06;;;;;;;5.88;2.30;;;;;;;;;;4944334;28;20168;-66
2022/01/24 13:06:39;;;;;;;6.50;2.00;;;;;;;;;;4951652;28;20063;-66
2022/01/24 13:09:19;;;;;;;4.82;2.20;;;;;;;;;;4951610;28;20058;-66
2022/01/24 13:11:57;;;;;;;5.53;2.25;;;;;;;;;;4920119;28;20422;-67
2022/01/24 13:14:41;;;;;;;3.92;2.03;;;;;;;;;;4951557;28;20059;-67
2022/01/24 13:23:05;;;;;;;5.47;2.30;;;;;;;;;;4990492;28;20629;-67
2022/01/24 13:25:38;;;;;;;5.18;2.25;;;;;;;;;;4973825;28;20419;-67
2022/01/24 13:28:12;;;;;;;15.48;8.48;;;;;;;;;;5000223;28;20057;-66
2022/01/24 13:30:46;;;;;;;5.07;2.63;;;;;;;;;;5035192;28;20053;-68
2022/01/24 13:33:24;;;;;;;5.47;2.47;;;;;;;;;;4992529;28;20060;-68
2022/01/24 13:36:05;;;;;;;5.47;2.80;;;;;;;;;;5071548;28;20040;-68
2022/01/24 13:38:44;;;;;;;4.97;2.30;;;;;;;;;;5052502;28;20072;-66
2022/01/24 13:41:26;;;;;;;6.30;2.40;;;;;;;;;;5071445;28;20036;-67
2022/01/24 13:44:04;;;;;;;4.40;2.38;;;;;;;;;;5035696;28;20408;-66
2022/01/24 13:46:44;;;;;;;5.45;2.40;;;;;;;;;;5054236;28;20412;-65
2022/01/24 13:49:17;;;;;;;3.90;1.90;;;;;;;;;;5070079;28;20040;-67
2022/01/24 13:51:52;;;;;;;3.72;1.70;;;;;;;;;;5036379;28;20056;-67
2022/01/24 13:54:28;;;;;;;7.50;2.20;;;;;;;;;;5003514;28;20123;-67
2022/01/24 13:57:04;;;;;;;4.50;2.20;;;;;;;;;;5052272;28;20063;-67
2022/01/24 13:59:36;;;;;;;6.35;1.85;;;;;;;;;;5018943;28;20045;-66
2022/01/24 14:02:17;;;;;;;6.32;1.90;;;;;;;;;;5068437;28;20045;-68
2022/01/24 14:04:53;;;;;;;6.78;2.00;;;;;;;;;;5048510;28;20049;-67
2022/01/24 14:07:41;;;;;;;5.97;2.08;;;;;;;;;;5048252;28;20057;-67
2022/01/24 14:10:16;;;;;;;5.97;1.98;;;;;;;;;;5048440;28;20060;-68
2022/01/24 14:12:55;;;;;;;3.72;1.98;;;;;;;;;;5048373;28;20064;-66
2022/01/24 14:20:51;;;;;;;4.60;2.28;;;;;;;;;;5033544;28;20049;-68
2022/01/24 14:23:35;;;;;;;3.65;1.75;;;;;;;;;;5015097;28;20484;-67
2022/01/24 14:26:20;;;;;;;7.90;2.20;;;;;;;;;;5047978;28;20049;-74
2022/01/24 14:29:30;;;;;;;4.07;2.08;;;;;;;;;;5048294;28;20095;-68
2022/01/24 14:32:09;;;;;;;3.50;2.10;;;;;;;;;;4992739;28;20498;-67
2022/01/24 14:34:40;;;;;;;3.15;2.00;;;;;;;;;;5008171;28;20050;-66
2022/01/24 14:37:12;;;;;;;5.55;2.65;;;;;;;;;;5008488;28;20395;-67
2022/01/24 14:39:47;;;;;;;5.03;1.98;;;;;;;;;;5008511;28;20050;-67
2022/01/24 14:42:34;;;;;;;4.03;1.70;;;;;;;;;;5026136;28;20053;-68
2022/01/24 14:45:05;;;;;;;7.85;2.10;;;;;;;;;;4998769;28;20049;-67
2022/01/24 14:47:35;;;;;;;3.08;1.80;;;;;;;;;;5047927;28;20513;-66
2022/01/24 14:50:07;;;;;;;4.53;2.13;;;;;;;;;;5015811;28;20072;-68
2022/01/24 14:52:43;;;;;;;4.88;1.90;;;;;;;;;;5047968;28;20045;-65
2022/01/24 14:55:13;;;;;;;9.52;2.47;;;;;;;;;;5024183;28;20053;-67
2022/01/24 14:57:44;;;;;;;6.60;2.17;;;;;;;;;;4992327;28;20058;-67
2022/01/24 15:00:14;;;;;;;5.07;2.22;;;;;;;;;;5008192;28;20058;-67
2022/01/24 15:02:45;;;;;;;2.42;1.48;;;;;;;;;;4991216;28;20065;-72
2022/01/24 15:05:19;;;;;;;5.60;1.73;;;;;;;;;;5024285;28;20048;-68
2022/01/24 15:07:50;;;;;;;3.55;1.70;;;;;;;;;;5011654;28;20056;-66
2022/01/24 15:10:21;;;;;;;4.63;2.05;;;;;;;;;;5028035;28;20053;-68
2022/01/24 15:12:53;;;;;;;4.40;1.80;;;;;;;;;;5027861;28;20417;-76
2022/01/24 15:15:25;;;;;;;4.75;1.98;;;;;;;;;;5027963;28;20042;-70
2022/01/24 15:26:19;;;;;;;3.78;1.83;;;;;;;;;;4980197;28;20061;-67
2022/01/24 15:28:50;;;;;;;4.25;2.75;;;;;;;;;;4998713;28;20385;-67
2022/01/24 15:31:20;;;;;;;4.57;1.88;;;;;;;;;;4998763;28;20052;-68
2022/01/24 15:33:50;;;;;;;5.13;1.80;;;;;;;;;;5067299;28;20056;-69
2022/01/24 15:36:21;;;;;;;3.63;1.75;;;;;;;;;;5071331;28;20048;-68
2022/01/24 15:38:55;;;;;;;3.13;1.73;;;;;;;;;;5038286;28;20052;-68
2022/01/24 15:41:26;;;;;;;3.08;2.10;;;;;;;;;;5071551;28;20059;-68
2022/01/24 15:44:31;;;;;;;4.32;2.22;;;;;;;;;;5087552;28;20063;-68
2022/01/24 15:46:57;;;;;;;5.28;2.45;;;;;;;;;;5074334;28;20048;-68
2022/01/24 15:49:28;;;;;;;8.27;1.70;;;;;;;;;;5073651;28;20392;-67
2022/01/24 15:51:59;;;;;;;4.35;2.25;;;;;;;;;;5072360;28;20052;-68
2022/01/24 15:54:32;;;;;;;7.03;3.45;;;;;;;;;;5073384;28;20051;-68
2022/01/24 15:59:53;;;;;;;4.47;3.08;;;;;;;;;;5058055;28;20501;-75
2022/01/24 16:02:33;;;;;;;3.97;2.90;;;;;;;;;;5070615;28;20053;-67
2022/01/24 16:05:06;;;;;;;7.47;2.60;;;;;;;;;;5070827;28;20052;-67
2022/01/24 16:07:39;;;;;;;11.30;2.05;;;;;;;;;;5021052;28;20064;-67
2022/01/24 16:10:13;;;;;;;9.95;2.10;;;;;;;;;;5070758;28;20416;-64
2022/01/24 16:12:46;;;;;;;6.07;2.15;;;;;;;;;;5070950;28;20072;-69
2022/01/24 16:15:21;;;;;;;8.40;2.72;;;;;;;;;;5070508;28;20175;-63
2022/01/24 16:17:52;;;;;;;9.85;3.63;;;;;;;;;;5070784;28;20045;-65
2022/01/24 16:20:36;;;;;;;9.77;3.35;;;;;;;;;;5070290;28;20083;-68
2022/01/24 16:25:43;;;;;;;6.82;2.60;;;;;;;;;;5070230;28;20056;-67
2022/01/24 16:28:31;;;;;;;7.35;2.47;;;;;;;;;;5070443;28;20048;-63
2022/01/24 16:31:05;;;;;;;7.30;3.03;;;;;;;;;;5020745;28;20048;-69
2022/01/24 16:33:37;;;;;;;5.30;2.70;;;;;;;;;;5070270;28;20067;-67
2022/01/24 16:36:11;;;;;;;4.30;2.30;;;;;;;;;;5070153;28;20147;-67
2022/01/24 16:38:45;;;;;;;7.95;3.15;;;;;;;;;;5038256;28;20053;-65
2022/01/24 16:41:21;;;;;;;5.95;3.00;;;;;;;;;;5034536;28;20501;-69
2022/01/24 16:49:16;;;;;;;5.55;3.53;;;;;;;;;;5052355;28;20044;-69
2022/01/24 16:51:48;;;;;;;9.82;3.88;;;;;;;;;;5052557;28;20048;-68
2022/01/24 16:54:23;;;;;;;8.45;3.50;;;;;;;;;;5052257;28;20393;-69
2022/01/24 16:56:54;;;;;;;6.95;4.47;;;;;;;;;;5017527;28;20049;-72
2022/01/24 16:59:25;;;;;;;7.70;3.97;;;;;;;;;;5029482;28;20045;-69
2022/01/24 17:01:56;;;;;;;8.98;3.83;;;;;;;;;;5029986;28;20049;-65
2022/01/24 17:04:28;;;;;;;7.22;4.70;;;;;;;;;;5030004;28;20386;-64
2022/01/24 17:06:58;;;;;;;7.78;3.63;;;;;;;;;;4996689;28;20057;-66
2022/01/24 17:09:29;;;;;;;8.95;3.45;;;;;;;;;;5029726;28;20441;-63
2022/01/24 17:12:03;;;;;;;8.77;3.63;;;;;;;;;;5029803;28;20417;-65
2022/01/24 17:14:37;;;;;;;10.45;3.88;;;;;;;;;;5029191;28;20049;-65
2022/01/24 17:17:07;;;;;;;7.63;4.13;;;;;;;;;;4996602;28;20076;-65
2022/01/24 17:19:38;;;;;;;11.23;3.92;;;;;;;;;;5013405;28;20061;-68
2022/01/24 17:22:09;;;;;;;8.50;4.45;;;;;;;;;;5029539;28;20386;-69
2022/01/24 17:24:40;;;;;;;11.98;3.65;;;;;;;;;;5009313;28;20054;-70
2022/01/24 17:27:22;;;;;;;6.13;3.95;;;;;;;;;;4977088;28;20054;-71
2022/01/24 17:29:54;;;;;;;4.82;2.85;;;;;;;;;;4960758;28;20522;-71
2022/01/24 17:32:45;;;;;;;8.07;3.40;;;;;;;;;;5009307;28;20168;-72
2022/01/24 17:35:16;;;;;;;8.90;3.83;;;;;;;;;;4977776;28;20057;-69
2022/01/24 17:37:47;;;;;;;8.13;3.90;;;;;;;;;;5001248;28;20061;-67
2022/01/24 17:40:19;;;;;;;6.85;3.92;;;;;;;;;;4957174;28;20558;-68
2022/01/24 17:42:54;;;;;;;7.43;4.07;;;;;;;;;;4989417;28;20054;-66